Sunday, August 19, 2018, 5:51 PM GMT
Back to Local

CXKT, Kentville , N. S.

Location: , , Canada Lat: 45.067
Local Time: 5:51 PM GMT (17:51 GMT) Lon: -64.483
Time Zone: GMT Elev: 160 ft

Show me the last for .
Show Coded

Time T Td Feel RH Dir Speed Gust Alt SLP Vis Weather Sky Remarks
2018-08-19 17:00 71 56 76 59 40° 12 21 - 30.04 0 Peak wind: 20 mph (18 kts) from 30° at 58 min
2018-08-19 16:00 70 56 76 61 50° 8 17 - 30.04 0 Peak wind: 20 mph (18 kts) from 20° at 40 min
2018-08-19 15:00 68 59 - 73 40° 10 17 - 30.03 0 Peak wind: 20 mph (18 kts) from 10° at 03 min
2018-08-19 14:00 66 59 - 77 30° 12 21 - 30.01 0 Peak wind: 21 mph (19 kts) from 40° at 43 min
2018-08-19 13:00 65 60 - 82 30° 13 20 - 29.99 0 Peak wind: 19 mph (17 kts) from 10° at 55 min
2018-08-19 12:00 65 60 - 85 30° 8 - - 29.96 0 None
2018-08-19 11:00 64 60 - 85 20° 8 - - 29.94 0 None
2018-08-19 10:00 64 60 - 86 10° 6 - - 29.92 0 None
2018-08-19 09:00 63 60 - 88 360° 5 - - 29.90 0 None
2018-08-19 08:00 63 60 - 89 340° 5 - - 29.88 0 None
2018-08-19 07:00 63 59 - 88 340° 3 - - 29.86 0 None
2018-08-19 06:00 63 59 - 88 10° 5 - - 29.85 0 None
2018-08-19 05:00 63 60 - 89 360° 6 - - 29.84 0 None
2018-08-19 04:00 63 60 - 89 10° 6 - - 29.83 0 None
2018-08-19 03:00 63 60 - 90 360° 7 - - 29.82 0 None
2018-08-19 02:00 63 60 - 90 360° 6 - - 29.82 0 None
2018-08-19 01:00 63 61 - 92 360° 5 - - 29.80 0 None
2018-08-19 00:00 63 61 - 92 350° 5 - - 29.78 0 None
2018-08-18 23:00 64 62 - 94 340° 5 - - 29.77 0 None
2018-08-18 22:00 64 63 - 95 320° 5 - - 29.76 0 1-hr Precip Total: 0.02"
2018-08-18 21:00 65 64 - 95 280° 3 - - 29.75 0 1-hr Precip Total: 0.01"
2018-08-18 20:00 66 65 - 95 - Calm - - 29.72 0 1-hr Precip Total: 0.30"
2018-08-18 19:00 67 65 - 93 310° 6 - - 29.72 0 1-hr Precip Total: 0.28"
2018-08-18 18:00 69 67 - 93 170° 5 - - 29.71 0 1-hr Precip Total: 0.23"

Support USWX by starting your Amazon purchase here.